Time;durP1;ratioP1;P1;durP2;ratioP2;P2;SDS_P1;SDS_P2;PMS_P1;PMS_P2;Temp;Humidity;BMP_temperature;BMP_pressure;BME280_temperature;BME280_humidity;BME280_pressure;Samples;Min_cycle;Max_cycle;Signal;HPM_P1;HPM_P2
2022/12/11 00:00:24;;;;;;;103.10;24.60;;;1.50;99.90;;;;;;5061012;28;20333;-68
2022/12/11 00:02:51;;;;;;;91.00;23.67;;;1.50;99.90;;;;;;5059553;28;20240;-67
2022/12/11 00:05:18;;;;;;;89.03;23.67;;;1.60;99.90;;;;;;5041751;28;20234;-67
2022/12/11 00:07:44;;;;;;;96.83;25.43;;;1.60;99.90;;;;;;5059389;28;20265;-68
2022/12/11 00:10:11;;;;;;;89.93;25.93;;;1.50;99.90;;;;;;5064433;28;20236;-68
2022/12/11 00:12:38;;;;;;;84.57;23.97;;;1.50;99.90;;;;;;5048142;28;20258;-68
2022/12/11 00:15:05;;;;;;;91.90;24.50;;;1.50;99.90;;;;;;5061581;28;20216;-68
2022/12/11 00:17:32;;;;;;;87.70;24.13;;;1.50;99.90;;;;;;5065533;28;20197;-68
2022/12/11 00:19:59;;;;;;;89.80;25.40;;;1.60;99.90;;;;;;5044931;28;20213;-68
2022/12/11 00:22:28;;;;;;;84.70;24.43;;;1.60;99.90;;;;;;5045520;28;20286;-68
2022/12/11 00:24:55;;;;;;;84.93;24.67;;;1.60;99.90;;;;;;5041684;28;20724;-68
2022/12/11 00:27:21;;;;;;;87.50;24.37;;;1.60;99.90;;;;;;5063899;28;20296;-68
2022/12/11 00:29:48;;;;;;;95.03;26.07;;;1.60;99.90;;;;;;5059109;28;20249;-68
2022/12/11 00:32:15;;;;;;;89.47;24.47;;;1.60;99.90;;;;;;5062902;28;20738;-68
2022/12/11 00:34:42;;;;;;;87.77;25.57;;;1.60;99.90;;;;;;5061298;28;20274;-68
2022/12/11 00:37:08;;;;;;;88.07;25.37;;;1.60;99.90;;;;;;5064163;28;20197;-67
2022/12/11 00:39:36;;;;;;;96.70;25.43;;;1.60;99.90;;;;;;5065115;28;20249;-67
2022/12/11 00:42:03;;;;;;;88.87;24.50;;;1.60;99.90;;;;;;5061471;28;20232;-66
2022/12/11 00:44:30;;;;;;;83.00;25.67;;;1.60;99.90;;;;;;5047390;28;20246;-68
2022/12/11 00:46:57;;;;;;;88.17;26.20;;;1.60;99.90;;;;;;5062627;28;20293;-68
2022/12/11 00:49:23;;;;;;;88.13;25.60;;;1.60;99.90;;;;;;5062596;28;20211;-67
2022/12/11 00:51:50;;;;;;;83.63;22.97;;;1.60;99.90;;;;;;5044787;28;20209;-68
2022/12/11 00:54:17;;;;;;;90.47;26.00;;;1.60;99.90;;;;;;5065518;28;20296;-68
2022/12/11 00:56:43;;;;;;;90.23;23.60;;;1.60;99.90;;;;;;5046827;28;20253;-68
2022/12/11 00:59:10;;;;;;;91.60;25.93;;;1.60;99.90;;;;;;5058625;28;20218;-66
2022/12/11 01:01:37;;;;;;;92.00;26.53;;;1.60;99.90;;;;;;5055713;28;20398;-68
2022/12/11 01:04:04;;;;;;;94.27;25.57;;;1.60;99.90;;;;;;5063659;28;20316;-66
2022/12/11 01:06:31;;;;;;;110.07;27.27;;;1.60;99.90;;;;;;5065431;28;20300;-67
2022/12/11 01:11:43;;;;;;;100.23;26.47;;;1.60;99.90;;;;;;5063129;28;20317;-67
2022/12/11 01:14:10;;;;;;;93.47;24.90;;;1.60;99.90;;;;;;5052559;28;20290;-67
2022/12/11 01:16:37;;;;;;;101.00;25.50;;;1.60;99.90;;;;;;5063913;28;20209;-67
2022/12/11 01:19:04;;;;;;;114.20;27.43;;;1.60;99.90;;;;;;5067082;28;20628;-67
2022/12/11 01:21:31;;;;;;;93.83;26.20;;;1.70;99.90;;;;;;5065215;28;20210;-67
2022/12/11 01:23:58;;;;;;;100.90;27.97;;;1.70;99.90;;;;;;5066593;28;20651;-68
2022/12/11 01:26:24;;;;;;;118.27;27.80;;;1.70;99.90;;;;;;5054923;28;20277;-68
2022/12/11 01:28:51;;;;;;;99.07;24.77;;;1.70;99.90;;;;;;5061758;28;20248;-68
2022/12/11 01:31:21;;;;;;;100.83;27.20;;;1.70;99.90;;;;;;5063172;28;20259;-66
2022/12/11 01:33:47;;;;;;;100.33;25.87;;;1.70;99.90;;;;;;5065222;28;20217;-66
2022/12/11 01:36:17;;;;;;;106.23;27.23;;;1.70;99.90;;;;;;5063984;28;20231;-67
2022/12/11 01:38:45;;;;;;;108.63;27.33;;;1.70;99.90;;;;;;5065815;28;20214;-67
2022/12/11 01:41:13;;;;;;;114.30;27.77;;;1.70;99.90;;;;;;5052335;28;20221;-67
2022/12/11 01:43:59;;;;;;;102.77;26.70;;;1.70;99.90;;;;;;5051390;28;20726;-67
2022/12/11 01:46:26;;;;;;;103.57;26.57;;;1.70;99.90;;;;;;5067509;28;20380;-66
2022/12/11 01:48:53;;;;;;;117.20;28.17;;;1.80;99.90;;;;;;5058646;28;20617;-67
2022/12/11 01:51:21;;;;;;;105.53;25.77;;;1.80;99.90;;;;;;5065645;28;20549;-67
2022/12/11 01:53:53;;;;;;;94.63;27.40;;;1.80;99.90;;;;;;5064985;28;20707;-67
2022/12/11 01:56:20;;;;;;;90.40;23.73;;;1.90;99.90;;;;;;5064294;28;20215;-66
2022/12/11 01:58:52;;;;;;;98.17;27.10;;;1.90;99.90;;;;;;5064846;28;20651;-67
2022/12/11 02:01:59;;;;;;;109.53;27.20;;;2.10;99.90;;;;;;5065632;28;20202;-67
2022/12/11 02:04:28;;;;;;;109.93;26.80;;;2.10;99.90;;;;;;5044372;28;20268;-67
2022/12/11 02:06:55;;;;;;;104.53;25.70;;;2.10;99.90;;;;;;5065086;28;20206;-68
2022/12/11 02:09:25;;;;;;;118.27;27.00;;;2.10;99.90;;;;;;5058416;28;20608;-66
2022/12/11 02:12:11;;;;;;;101.70;27.43;;;2.10;99.90;;;;;;5061902;28;20255;-67
2022/12/11 02:14:44;;;;;;;108.83;29.27;;;2.10;99.90;;;;;;5067577;28;20209;-66
2022/12/11 02:17:22;;;;;;;107.80;26.40;;;2.10;99.90;;;;;;5064622;28;20652;-67
2022/12/11 02:20:11;;;;;;;105.87;26.03;;;2.10;99.90;;;;;;5060163;28;20205;-67
2022/12/11 02:23:03;;;;;;;94.17;27.00;;;2.20;99.90;;;;;;5050438;28;20202;-67
2022/12/11 02:25:45;;;;;;;92.53;25.83;;;2.20;99.90;;;;;;5059859;28;20257;-67
2022/12/11 02:28:24;;;;;;;108.10;25.10;;;2.20;99.90;;;;;;5065209;28;20226;-67
2022/12/11 02:30:55;;;;;;;98.23;25.93;;;2.20;99.90;;;;;;5062850;28;20303;-67
2022/12/11 02:33:36;;;;;;;94.23;25.53;;;2.20;99.90;;;;;;5051485;28;20512;-67
2022/12/11 02:36:05;;;;;;;102.73;26.30;;;2.20;99.90;;;;;;5065621;28;20297;-67
2022/12/11 02:38:36;;;;;;;101.97;25.33;;;2.20;99.90;;;;;;5060272;28;20754;-67
2022/12/11 02:41:06;;;;;;;91.67;25.00;;;2.20;99.90;;;;;;5063415;28;20289;-67
2022/12/11 02:43:34;;;;;;;91.57;26.50;;;2.30;99.90;;;;;;5044749;28;20651;-67
2022/12/11 02:46:03;;;;;;;97.93;24.00;;;2.20;99.90;;;;;;5061338;28;20295;-67
2022/12/11 02:48:32;;;;;;;91.33;24.40;;;2.20;99.90;;;;;;5060595;28;20689;-67
2022/12/11 02:51:01;;;;;;;97.03;25.80;;;2.30;99.90;;;;;;5063992;28;20309;-67
2022/12/11 02:53:31;;;;;;;98.57;25.67;;;2.20;99.90;;;;;;5065748;28;20290;-67
2022/12/11 02:56:05;;;;;;;99.70;26.77;;;2.20;99.90;;;;;;5052388;28;20293;-68
2022/12/11 02:58:33;;;;;;;94.73;25.60;;;2.20;99.90;;;;;;5061821;28;20379;-67
2022/12/11 03:01:00;;;;;;;89.87;24.97;;;2.20;99.90;;;;;;5063287;28;20294;-68
2022/12/11 03:03:28;;;;;;;98.67;26.47;;;2.20;99.90;;;;;;5064786;28;20208;-67
2022/12/11 03:05:55;;;;;;;104.17;25.27;;;2.20;99.90;;;;;;5064281;28;20314;-67
2022/12/11 03:08:22;;;;;;;106.83;26.37;;;2.20;99.90;;;;;;5063711;28;20203;-68
2022/12/11 03:10:49;;;;;;;98.07;26.23;;;2.20;99.90;;;;;;5064798;28;20244;-67
2022/12/11 03:13:19;;;;;;;104.60;28.50;;;2.30;99.90;;;;;;5064554;28;20219;-67
2022/12/11 03:16:05;;;;;;;104.33;25.43;;;2.30;99.90;;;;;;5065204;28;20709;-67
2022/12/11 03:18:54;;;;;;;105.37;25.77;;;2.20;99.90;;;;;;5058221;28;20262;-68
2022/12/11 03:21:47;;;;;;;91.27;25.33;;;2.20;99.90;;;;;;5061309;28;20204;-68
2022/12/11 03:24:25;;;;;;;97.63;24.37;;;2.20;99.90;;;;;;5063336;28;20279;-68
2022/12/11 03:27:00;;;;;;;107.03;25.63;;;2.20;99.90;;;;;;5045809;28;20333;-67
2022/12/11 03:29:33;;;;;;;86.17;24.90;;;2.20;99.90;;;;;;5063486;28;20238;-67
2022/12/11 03:32:12;;;;;;;86.90;24.53;;;2.20;99.90;;;;;;5058835;28;20206;-67
2022/12/11 03:34:47;;;;;;;93.50;24.77;;;2.20;99.90;;;;;;5059273;28;20646;-67
2022/12/11 03:37:15;;;;;;;99.50;28.23;;;2.20;99.90;;;;;;5061905;28;20557;-67
2022/12/11 03:39:50;;;;;;;100.33;26.00;;;2.10;99.90;;;;;;5061217;28;20212;-67
2022/12/11 03:42:20;;;;;;;85.87;24.73;;;2.20;99.90;;;;;;5059244;28;20307;-67
2022/12/11 03:44:49;;;;;;;99.07;26.33;;;2.10;99.90;;;;;;5067313;28;20308;-67
2022/12/11 03:47:19;;;;;;;95.37;26.27;;;2.10;99.90;;;;;;5057811;28;20206;-67
2022/12/11 03:49:49;;;;;;;99.77;26.23;;;2.20;99.90;;;;;;5061445;28;20298;-67
2022/12/11 03:52:16;;;;;;;99.77;25.77;;;2.10;99.90;;;;;;5058885;28;20248;-67
2022/12/11 03:54:47;;;;;;;95.23;26.67;;;2.10;99.90;;;;;;5066041;28;20289;-67
2022/12/11 03:57:19;;;;;;;101.30;26.43;;;2.10;99.90;;;;;;5059046;28;20248;-67
2022/12/11 03:59:47;;;;;;;108.87;26.83;;;2.10;99.90;;;;;;5060912;28;20676;-67
2022/12/11 04:02:13;;;;;;;96.20;26.17;;;2.10;99.90;;;;;;5057475;28;20728;-67
2022/12/11 04:04:41;;;;;;;86.83;25.03;;;2.10;99.90;;;;;;5058193;28;20249;-67
2022/12/11 04:07:08;;;;;;;94.43;24.67;;;2.20;99.90;;;;;;5061290;28;20210;-67
2022/12/11 04:09:35;;;;;;;94.00;24.10;;;2.10;99.90;;;;;;5051576;28;20308;-67
2022/12/11 04:12:02;;;;;;;95.80;24.43;;;2.10;99.90;;;;;;5064861;28;20340;-67
2022/12/11 04:24:13;;;;;;;81.30;22.90;;;2.20;99.90;;;;;;5061919;28;20593;-67
2022/12/11 04:25:32;;;;;;;92.93;23.40;;;2.20;99.90;;;;;;5062783;28;20229;-67
2022/12/11 04:27:59;;;;;;;86.13;22.33;;;2.20;99.90;;;;;;5061090;28;20222;-68
2022/12/11 04:30:26;;;;;;;88.87;22.67;;;2.20;99.90;;;;;;5062105;28;20213;-67
2022/12/11 04:33:00;;;;;;;96.20;24.90;;;2.20;99.90;;;;;;5063936;28;20210;-66
2022/12/11 04:35:27;;;;;;;78.87;22.27;;;2.30;99.90;;;;;;5060780;28;20329;-66
2022/12/11 04:37:54;;;;;;;91.60;24.47;;;2.30;99.90;;;;;;5058550;28;20239;-66
2022/12/11 04:40:21;;;;;;;90.20;23.33;;;2.30;99.90;;;;;;5062028;28;20702;-66
2022/12/11 04:42:47;;;;;;;92.13;23.23;;;2.30;99.90;;;;;;5055921;28;20246;-67
2022/12/11 04:45:14;;;;;;;89.50;23.80;;;2.40;99.90;;;;;;5063191;28;20230;-67
2022/12/11 04:47:41;;;;;;;94.50;24.67;;;2.40;99.90;;;;;;5061582;28;20290;-68
2022/12/11 04:50:10;;;;;;;105.23;25.80;;;2.40;99.90;;;;;;5062790;28;20672;-67
2022/12/11 04:52:37;;;;;;;102.10;24.50;;;2.40;99.90;;;;;;5065390;28;20681;-67
2022/12/11 04:55:05;;;;;;;94.47;24.30;;;2.40;99.90;;;;;;5058453;28;20574;-67
2022/12/11 04:57:31;;;;;;;97.63;25.13;;;2.40;99.90;;;;;;5063367;28;20600;-67
2022/12/11 04:59:58;;;;;;;90.47;23.77;;;2.40;99.90;;;;;;5061626;28;20286;-67
2022/12/11 05:02:26;;;;;;;89.67;22.57;;;2.40;99.90;;;;;;5057272;28;20566;-67
2022/12/11 05:04:52;;;;;;;96.30;23.20;;;2.40;99.90;;;;;;5044075;28;20694;-68
2022/12/11 05:07:19;;;;;;;99.50;24.30;;;2.40;99.90;;;;;;5061534;28;20215;-67
2022/12/11 05:09:46;;;;;;;102.60;24.93;;;2.40;99.90;;;;;;5063691;28;20264;-66
2022/12/11 05:12:12;;;;;;;95.53;24.93;;;2.40;99.90;;;;;;5063708;28;20302;-66
2022/12/11 05:14:39;;;;;;;87.37;23.83;;;2.40;99.90;;;;;;5063815;28;20289;-67
2022/12/11 05:17:06;;;;;;;99.33;25.73;;;2.40;99.90;;;;;;5056838;28;20303;-67
2022/12/11 05:19:33;;;;;;;89.63;25.30;;;2.50;99.90;;;;;;5064178;28;20670;-67
2022/12/11 05:21:59;;;;;;;97.90;26.40;;;2.40;99.90;;;;;;5060090;28;20289;-66
2022/12/11 05:24:26;;;;;;;99.60;23.03;;;2.40;99.90;;;;;;5061194;28;20275;-66
2022/12/11 05:26:53;;;;;;;100.53;24.73;;;2.50;99.90;;;;;;5058204;28;20227;-66
2022/12/11 05:29:19;;;;;;;104.13;25.53;;;2.40;99.90;;;;;;5059682;28;20218;-67
2022/12/11 05:31:46;;;;;;;99.17;25.47;;;2.40;99.90;;;;;;5058853;28;20302;-67
2022/12/11 05:34:14;;;;;;;101.30;26.13;;;2.40;99.90;;;;;;5062972;28;20212;-66
2022/12/11 05:36:41;;;;;;;98.83;26.00;;;2.40;99.90;;;;;;5057716;28;20302;-66
2022/12/11 05:39:10;;;;;;;109.23;27.53;;;2.30;99.90;;;;;;5047826;28;20217;-66
2022/12/11 05:41:36;;;;;;;101.03;26.53;;;2.30;99.90;;;;;;5044357;28;20343;-67
2022/12/11 05:44:03;;;;;;;103.03;25.40;;;2.30;99.90;;;;;;5070529;28;20289;-66
2022/12/11 05:46:30;;;;;;;93.63;24.87;;;2.40;99.90;;;;;;5057571;28;20236;-66
2022/12/11 05:49:00;;;;;;;95.13;24.53;;;2.50;99.90;;;;;;5061230;28;20210;-67
2022/12/11 05:51:28;;;;;;;99.60;26.53;;;2.30;99.90;;;;;;5047156;28;20290;-66
2022/12/11 05:53:55;;;;;;;92.30;24.53;;;2.40;99.90;;;;;;5067254;28;20741;-66
2022/12/11 05:56:28;;;;;;;87.23;24.67;;;2.40;99.90;;;;;;5063868;28;20298;-67
2022/12/11 05:58:56;;;;;;;88.97;25.87;;;2.40;99.90;;;;;;5065234;28;20287;-66
2022/12/11 06:01:39;;;;;;;99.57;26.40;;;2.40;99.90;;;;;;5067450;28;20753;-67
2022/12/11 06:04:08;;;;;;;89.93;26.13;;;2.40;99.90;;;;;;5040114;28;20622;-66
2022/12/11 06:06:36;;;;;;;90.30;25.13;;;2.40;99.90;;;;;;5064752;28;20215;-66
2022/12/11 06:09:04;;;;;;;101.80;26.17;;;2.40;99.90;;;;;;5065326;28;20235;-66
2022/12/11 06:11:32;;;;;;;94.93;25.60;;;2.40;99.90;;;;;;5064358;28;20337;-66
2022/12/11 06:14:01;;;;;;;88.63;26.57;;;2.40;99.90;;;;;;5065346;28;20199;-67
2022/12/11 06:16:28;;;;;;;98.23;27.73;;;2.40;99.90;;;;;;5063175;28;20409;-66
2022/12/11 06:18:55;;;;;;;98.87;27.57;;;2.40;99.90;;;;;;5068087;28;20218;-66
2022/12/11 06:21:28;;;;;;;96.27;25.83;;;2.40;99.90;;;;;;5068130;28;20204;-66
2022/12/11 06:23:57;;;;;;;97.03;25.83;;;2.40;99.90;;;;;;5069540;28;20281;-67
2022/12/11 06:26:25;;;;;;;89.30;25.90;;;2.50;99.90;;;;;;5064770;28;20236;-66
2022/12/11 06:28:52;;;;;;;98.33;27.17;;;2.40;99.90;;;;;;5068807;28;20286;-67
2022/12/11 06:31:19;;;;;;;103.13;27.47;;;2.50;99.90;;;;;;5066878;28;20277;-66
2022/12/11 06:33:47;;;;;;;83.70;25.83;;;2.50;99.90;;;;;;5048938;28;20207;-66
2022/12/11 06:36:20;;;;;;;96.10;26.60;;;2.50;99.90;;;;;;5067676;28;20559;-66
2022/12/11 06:38:47;;;;;;;103.50;28.03;;;2.50;99.90;;;;;;5068671;28;20298;-66
2022/12/11 06:41:14;;;;;;;100.03;27.00;;;2.50;99.90;;;;;;5050346;28;20995;-66
2022/12/11 06:43:42;;;;;;;90.70;25.90;;;2.60;99.90;;;;;;5068801;28;20281;-66
2022/12/11 06:46:11;;;;;;;91.07;26.10;;;2.60;99.90;;;;;;5065260;28;20223;-66
2022/12/11 06:48:41;;;;;;;101.17;27.47;;;2.60;99.90;;;;;;5061774;28;20295;-67
2022/12/11 06:51:10;;;;;;;92.63;26.73;;;2.60;99.90;;;;;;5062355;28;20217;-66
2022/12/11 06:53:37;;;;;;;91.13;27.47;;;2.60;99.90;;;;;;5045531;28;20658;-66
2022/12/11 06:56:12;;;;;;;91.50;29.03;;;2.70;99.90;;;;;;5064278;28;20200;-67
2022/12/11 06:58:41;;;;;;;85.73;26.77;;;2.60;99.90;;;;;;5067279;28;20241;-67
2022/12/11 07:01:22;;;;;;;89.87;26.87;;;2.50;99.90;;;;;;5062733;28;20298;-66
2022/12/11 07:03:51;;;;;;;90.60;27.73;;;2.60;99.90;;;;;;5066485;28;20583;-66
2022/12/11 07:06:17;;;;;;;76.17;25.33;;;2.50;99.90;;;;;;5064608;28;20232;-66
2022/12/11 07:08:44;;;;;;;88.60;28.67;;;2.60;99.90;;;;;;5065636;28;20213;-66
2022/12/11 07:11:13;;;;;;;78.90;26.53;;;2.50;99.90;;;;;;5063666;28;20643;-66
2022/12/11 07:13:41;;;;;;;83.07;27.67;;;2.50;99.90;;;;;;5058578;28;20202;-66
2022/12/11 07:16:10;;;;;;;82.27;26.87;;;2.50;99.90;;;;;;5064231;28;20210;-66
2022/12/11 07:18:43;;;;;;;73.77;25.17;;;2.50;99.90;;;;;;5064693;28;20269;-66
2022/12/11 07:21:11;;;;;;;78.23;25.73;;;2.50;99.90;;;;;;5066717;28;20725;-66
2022/12/11 07:23:39;;;;;;;83.47;26.67;;;2.50;99.90;;;;;;5065684;28;20198;-66
2022/12/11 07:26:08;;;;;;;77.33;27.00;;;2.50;99.90;;;;;;5066444;28;20224;-66
2022/12/11 07:28:35;;;;;;;81.13;26.00;;;2.60;99.90;;;;;;5062932;28;20212;-66
2022/12/11 07:31:14;;;;;;;83.77;26.80;;;2.50;99.90;;;;;;5068265;28;20202;-66
2022/12/11 07:33:41;;;;;;;86.37;27.50;;;2.50;99.90;;;;;;5065830;28;20286;-67
2022/12/11 07:36:10;;;;;;;84.63;28.77;;;2.50;99.90;;;;;;5046666;28;20630;-67
2022/12/11 07:38:38;;;;;;;78.20;27.70;;;2.50;99.90;;;;;;5057106;28;20284;-67
2022/12/11 07:41:09;;;;;;;86.90;28.10;;;2.50;99.90;;;;;;5060266;28;20279;-67
2022/12/11 07:43:36;;;;;;;74.40;26.63;;;2.50;99.90;;;;;;5060538;28;20697;-67
2022/12/11 07:46:05;;;;;;;81.37;27.30;;;2.50;99.90;;;;;;5046595;28;20412;-67
2022/12/11 07:48:35;;;;;;;76.00;27.37;;;2.50;99.90;;;;;;5063553;28;20294;-67
2022/12/11 07:51:08;;;;;;;80.50;26.33;;;2.50;99.90;;;;;;5063605;28;20292;-67
2022/12/11 07:53:35;;;;;;;80.57;27.70;;;2.50;99.90;;;;;;5064401;28;20195;-67
2022/12/11 07:56:02;;;;;;;74.40;25.73;;;2.50;99.90;;;;;;5064010;28;20198;-67
2022/12/11 07:58:29;;;;;;;74.30;26.30;;;2.50;99.90;;;;;;5064755;28;20304;-68
2022/12/11 08:00:57;;;;;;;75.57;27.67;;;2.50;99.90;;;;;;5064506;28;20199;-66
2022/12/11 08:03:24;;;;;;;77.00;26.23;;;2.50;99.90;;;;;;5063181;28;20270;-68
2022/12/11 08:05:52;;;;;;;76.43;26.83;;;2.50;99.90;;;;;;5066715;28;20228;-68
2022/12/11 08:08:19;;;;;;;78.70;26.67;;;2.50;99.90;;;;;;5064064;28;20218;-66
2022/12/11 08:10:46;;;;;;;78.73;25.97;;;2.50;99.90;;;;;;5062508;28;20228;-67
2022/12/11 08:13:12;;;;;;;81.27;27.53;;;2.60;99.90;;;;;;5063027;28;20708;-68
2022/12/11 08:15:39;;;;;;;76.43;27.37;;;2.60;99.90;;;;;;5047718;28;20527;-66
2022/12/11 08:18:06;;;;;;;82.60;29.93;;;2.50;99.90;;;;;;5062280;28;20230;-67
2022/12/11 08:20:32;;;;;;;79.63;27.37;;;2.50;99.90;;;;;;5067710;28;20207;-68
2022/12/11 08:22:59;;;;;;;80.73;27.53;;;2.50;99.90;;;;;;5061293;28;20207;-67
2022/12/11 08:25:28;;;;;;;71.87;26.97;;;2.50;99.90;;;;;;5060573;28;20221;-67
2022/12/11 08:27:55;;;;;;;70.60;26.23;;;2.50;99.90;;;;;;5060533;28;20212;-67
2022/12/11 08:30:21;;;;;;;83.50;29.30;;;2.50;99.90;;;;;;5066081;28;20203;-67
2022/12/11 08:32:48;;;;;;;75.67;27.63;;;2.50;99.90;;;;;;5062495;28;20211;-67
2022/12/11 08:35:15;;;;;;;72.07;27.40;;;2.50;99.90;;;;;;5060310;28;20598;-67
2022/12/11 08:37:42;;;;;;;71.10;28.73;;;2.60;99.90;;;;;;5063775;28;20236;-67
2022/12/11 08:40:09;;;;;;;71.50;27.83;;;2.60;99.90;;;;;;5050079;28;20198;-68
2022/12/11 08:42:36;;;;;;;71.13;28.57;;;2.50;99.90;;;;;;5058708;28;20625;-67
2022/12/11 08:45:04;;;;;;;64.50;26.73;;;2.50;99.90;;;;;;5063648;28;20219;-67
2022/12/11 08:47:30;;;;;;;72.37;27.37;;;2.40;99.90;;;;;;5066873;28;20253;-67
2022/12/11 08:49:57;;;;;;;69.83;27.97;;;2.40;99.90;;;;;;5062617;28;20207;-67
2022/12/11 08:52:24;;;;;;;65.70;26.93;;;2.30;99.90;;;;;;5066749;28;20668;-68
2022/12/11 08:54:50;;;;;;;60.70;25.43;;;2.30;99.90;;;;;;5062243;28;20206;-67
2022/12/11 08:57:17;;;;;;;64.90;26.03;;;2.30;99.90;;;;;;5060925;28;20598;-67
2022/12/11 08:59:44;;;;;;;62.33;25.60;;;2.40;99.90;;;;;;5063526;28;20289;-67
2022/12/11 09:02:12;;;;;;;58.77;23.23;;;2.30;99.90;;;;;;5059371;28;20242;-67
2022/12/11 09:04:39;;;;;;;59.73;24.20;;;2.30;99.90;;;;;;5065188;28;20230;-67
2022/12/11 09:07:05;;;;;;;59.40;23.53;;;2.30;99.90;;;;;;5064761;28;20232;-67
2022/12/11 09:09:32;;;;;;;54.07;23.97;;;2.30;99.90;;;;;;5065957;28;20227;-66
2022/12/11 09:12:00;;;;;;;58.13;24.07;;;2.30;99.90;;;;;;5059963;28;20614;-66
2022/12/11 09:14:27;;;;;;;59.17;24.10;;;2.30;99.90;;;;;;5063564;28;20214;-66
2022/12/11 09:16:54;;;;;;;59.87;23.27;;;2.40;99.90;;;;;;5069686;28;20294;-66
2022/12/11 09:19:21;;;;;;;49.27;22.53;;;2.20;99.90;;;;;;5071732;28;20286;-67
2022/12/11 09:21:47;;;;;;;53.60;22.63;;;2.20;99.90;;;;;;5049585;28;20230;-67
2022/12/11 09:24:14;;;;;;;59.30;24.00;;;2.30;99.90;;;;;;5052307;28;20224;-67
2022/12/11 09:26:41;;;;;;;55.60;23.77;;;2.40;99.90;;;;;;5060919;28;20233;-66
2022/12/11 09:29:09;;;;;;;52.53;21.83;;;2.20;99.90;;;;;;5071108;28;20669;-67
2022/12/11 09:31:36;;;;;;;55.03;23.10;;;2.20;99.90;;;;;;5053253;28;20276;-66
2022/12/11 09:34:06;;;;;;;53.10;21.27;;;2.20;99.90;;;;;;5069594;28;20211;-67
2022/12/11 09:36:33;;;;;;;47.10;20.63;;;2.20;99.90;;;;;;5067315;28;20201;-67
2022/12/11 09:39:02;;;;;;;47.83;20.87;;;2.20;99.90;;;;;;5064206;28;20196;-67
2022/12/11 09:41:55;;;;;;;49.40;20.37;;;2.20;99.90;;;;;;5066057;28;20723;-67
2022/12/11 09:44:31;;;;;;;49.43;20.83;;;2.20;99.90;;;;;;5064979;28;20397;-67
2022/12/11 09:46:59;;;;;;;41.83;18.53;;;2.20;99.90;;;;;;5056398;28;20686;-67
2022/12/11 09:49:37;;;;;;;38.63;17.93;;;2.30;99.90;;;;;;5067598;28;20649;-67
2022/12/11 09:52:16;;;;;;;41.17;17.37;;;2.20;99.90;;;;;;5069550;28;20194;-67
2022/12/11 09:54:53;;;;;;;40.90;18.30;;;2.20;99.90;;;;;;5048871;28;20231;-69
2022/12/11 09:57:27;;;;;;;41.80;17.13;;;2.00;99.90;;;;;;5068888;28;20238;-68
2022/12/11 10:00:10;;;;;;;43.47;18.43;;;2.10;99.90;;;;;;5059801;28;20654;-67
2022/12/11 10:03:06;;;;;;;38.27;18.30;;;2.20;99.90;;;;;;5063467;28;20241;-67
2022/12/11 10:05:43;;;;;;;45.47;20.50;;;2.20;99.90;;;;;;5069485;28;20312;-67
2022/12/11 10:08:18;;;;;;;45.70;18.17;;;2.20;99.90;;;;;;5065140;28;20227;-67
2022/12/11 10:11:15;;;;;;;42.37;17.30;;;2.20;99.90;;;;;;5066620;28;20229;-68
2022/12/11 10:13:57;;;;;;;35.83;16.83;;;2.30;99.90;;;;;;5060848;28;20209;-67
2022/12/11 10:16:45;;;;;;;33.77;15.93;;;2.30;99.90;;;;;;5062031;28;20203;-67
2022/12/11 10:19:33;;;;;;;35.87;16.70;;;2.30;99.90;;;;;;5042809;28;20201;-68
2022/12/11 10:22:01;;;;;;;40.03;16.33;;;2.40;99.90;;;;;;5061078;28;20237;-68
2022/12/11 10:24:41;;;;;;;42.30;17.67;;;2.40;99.90;;;;;;5045771;28;20542;-67
2022/12/11 10:27:31;;;;;;;38.00;17.63;;;2.30;99.90;;;;;;5063331;28;20234;-68
2022/12/11 10:30:13;;;;;;;36.50;16.33;;;2.20;99.90;;;;;;5057243;28;20206;-67
2022/12/11 10:33:15;;;;;;;37.00;17.27;;;2.20;99.90;;;;;;5065614;28;20215;-67
2022/12/11 10:35:47;;;;;;;42.03;17.67;;;2.30;99.90;;;;;;5066441;28;20216;-68
2022/12/11 10:38:22;;;;;;;36.90;16.70;;;2.30;99.90;;;;;;5064003;28;20675;-67
2022/12/11 10:40:56;;;;;;;32.27;15.73;;;2.40;99.90;;;;;;5046188;28;20286;-67
2022/12/11 10:43:35;;;;;;;35.90;17.67;;;2.40;99.90;;;;;;5060554;28;20318;-67
2022/12/11 10:46:03;;;;;;;35.40;16.40;;;2.40;99.90;;;;;;5060762;28;20289;-68
2022/12/11 10:48:30;;;;;;;36.97;16.87;;;2.50;99.90;;;;;;5044781;28;20239;-68
2022/12/11 10:51:01;;;;;;;37.17;16.33;;;2.50;99.90;;;;;;5064635;28;20283;-67
2022/12/11 10:53:29;;;;;;;34.37;16.00;;;2.50;99.90;;;;;;5064591;28;20244;-67
2022/12/11 10:55:57;;;;;;;33.30;16.23;;;2.60;99.90;;;;;;5056922;28;20284;-66
2022/12/11 10:58:32;;;;;;;32.77;15.80;;;2.60;99.90;;;;;;5064211;28;20715;-68
2022/12/11 11:01:02;;;;;;;34.23;15.73;;;2.60;99.90;;;;;;5055123;28;20219;-67
2022/12/11 11:03:29;;;;;;;35.83;16.60;;;2.70;99.90;;;;;;5062740;28;20295;-66
2022/12/11 11:06:16;;;;;;;37.77;17.73;;;2.70;99.90;;;;;;5055930;28;20220;-67
2022/12/11 11:08:54;;;;;;;33.23;15.77;;;2.80;99.90;;;;;;5059079;28;20208;-66
2022/12/11 11:11:31;;;;;;;31.70;15.60;;;2.80;99.90;;;;;;5068814;28;20584;-68
2022/12/11 11:14:08;;;;;;;29.93;14.70;;;2.80;99.90;;;;;;5063298;28;20238;-68
2022/12/11 11:16:37;;;;;;;36.17;16.07;;;2.80;99.90;;;;;;5063346;28;20298;-68
2022/12/11 11:19:05;;;;;;;36.00;15.80;;;2.80;99.90;;;;;;5065208;28;20210;-67
2022/12/11 11:21:34;;;;;;;35.67;16.40;;;2.80;99.90;;;;;;5066283;28;20299;-66
2022/12/11 11:24:02;;;;;;;32.10;15.40;;;2.80;99.90;;;;;;5065653;28;20214;-67
2022/12/11 11:26:31;;;;;;;30.73;14.13;;;2.80;99.90;;;;;;5065010;28;20311;-67
2022/12/11 11:29:29;;;;;;;29.47;14.13;;;2.80;99.90;;;;;;5065903;28;20204;-66
2022/12/11 11:32:01;;;;;;;30.97;14.70;;;2.80;99.90;;;;;;5065950;28;20299;-65
2022/12/11 11:34:29;;;;;;;33.20;15.00;;;2.80;99.90;;;;;;5064017;28;20301;-67
2022/12/11 11:36:59;;;;;;;32.60;15.03;;;2.80;99.90;;;;;;5064147;28;20654;-66
2022/12/11 11:39:37;;;;;;;33.33;15.03;;;2.80;99.90;;;;;;5043756;28;20209;-66
2022/12/11 11:42:17;;;;;;;32.37;14.67;;;2.80;99.90;;;;;;5063635;28;20221;-67
2022/12/11 11:44:58;;;;;;;33.87;15.80;;;2.80;99.90;;;;;;5069037;28;20303;-67
2022/12/11 11:47:29;;;;;;;30.33;15.20;;;2.80;99.90;;;;;;5061533;28;20686;-66
2022/12/11 11:50:24;;;;;;;28.70;14.43;;;2.80;99.90;;;;;;5058802;28;20641;-68
2022/12/11 11:52:59;;;;;;;29.20;15.37;;;2.90;99.90;;;;;;5065739;28;20236;-66
2022/12/11 11:55:56;;;;;;;36.70;15.53;;;2.90;99.90;;;;;;5067189;28;20267;-68
2022/12/11 11:58:48;;;;;;;30.17;14.53;;;2.90;99.90;;;;;;5063875;28;20251;-67
2022/12/11 12:01:17;;;;;;;31.93;15.03;;;2.90;99.90;;;;;;5060566;28;20207;-67
2022/12/11 12:03:46;;;;;;;35.53;15.10;;;2.90;99.90;;;;;;5066949;28;20294;-67
2022/12/11 12:06:40;;;;;;;32.47;16.00;;;2.90;99.90;;;;;;5058097;28;20291;-67
2022/12/11 12:09:36;;;;;;;30.87;15.00;;;3.00;99.90;;;;;;5017629;28;20330;-67
2022/12/11 12:12:09;;;;;;;28.43;14.90;;;3.00;99.90;;;;;;5062151;28;20348;-66
2022/12/11 12:15:17;;;;;;;33.67;14.47;;;3.00;99.90;;;;;;5044901;28;20299;-67
2022/12/11 12:17:54;;;;;;;31.27;15.13;;;3.00;99.90;;;;;;5058844;28;20298;-66
2022/12/11 12:20:40;;;;;;;31.83;16.50;;;3.00;99.90;;;;;;5065712;28;20232;-66
2022/12/11 12:23:34;;;;;;;33.37;15.37;;;3.00;99.90;;;;;;5059953;28;20300;-66
2022/12/11 12:26:30;;;;;;;33.77;15.60;;;3.00;99.90;;;;;;5056790;28;20209;-68
2022/12/11 12:29:25;;;;;;;33.53;16.00;;;3.00;99.90;;;;;;5064745;28;20291;-66
2022/12/11 12:32:18;;;;;;;30.97;14.97;;;3.10;99.90;;;;;;5064186;28;20627;-67
2022/12/11 12:35:29;;;;;;;38.53;17.17;;;3.10;99.90;;;;;;5031946;28;20715;-66
2022/12/11 12:38:05;;;;;;;36.50;16.00;;;3.10;99.90;;;;;;5064804;28;20540;-67
2022/12/11 12:40:35;;;;;;;31.83;15.80;;;3.10;99.90;;;;;;5043321;28;20250;-68
2022/12/11 12:43:20;;;;;;;34.63;17.47;;;3.10;99.90;;;;;;5064888;28;20634;-66
2022/12/11 12:45:47;;;;;;;34.13;15.63;;;3.10;99.90;;;;;;5059938;28;20239;-67
2022/12/11 12:48:14;;;;;;;59.93;25.30;;;3.10;99.90;;;;;;5062352;28;20247;-67
2022/12/11 12:50:45;;;;;;;37.33;17.53;;;3.10;99.90;;;;;;5058882;28;20201;-66
2022/12/11 12:53:26;;;;;;;38.13;17.03;;;3.10;99.90;;;;;;5061868;28;20215;-68
2022/12/11 12:55:54;;;;;;;32.33;15.67;;;3.10;99.90;;;;;;5046746;28;20269;-68
2022/12/11 12:58:30;;;;;;;31.30;15.53;;;3.10;99.90;;;;;;5062251;28;20303;-67
2022/12/11 13:01:15;;;;;;;34.53;16.70;;;3.10;99.90;;;;;;5064618;28;20302;-66
2022/12/11 13:04:25;;;;;;;34.77;17.40;;;3.00;99.90;;;;;;5064111;28;20217;-67
2022/12/11 13:07:28;;;;;;;32.23;16.93;;;3.00;99.90;;;;;;5062255;28;20242;-67
2022/12/11 13:10:06;;;;;;;35.67;17.73;;;3.00;99.90;;;;;;5059412;28;20236;-67